Ana Sayfa
METAR-TAF:

METAR-TAF

Havaalanları :

Dakar, Senegal

Enlem: 14-44N, Boylam: 017-30W, yükseklik: 27 m

Güncel hava durumu gözlemi

Rapor saat 00:00 UTC de 51 dakika önce yapıldı.
Sakin rüzgar
Sıcaklık 27°C
Nem 94%
Basınç 1013 hPa
Görüş mesafesi: 8000 m
1300 ft yükseklikte az bulutlu

METAR: GOOY 230000Z 00000KT 8000 FEW013 27/26 Q1013

Saat: 00:51 (00:51 UTC)

Tahmin

Rapor saat 17:30 UTC de 7 saat ve 21 dakika önce yapıldı.
Ayın 22'si saat 18 UTC'den ayın 23'si saat 24 UTC'ye kadar geçerli Tahmin
Rüzgar batı/kuzeybatıdan 8 kt
Görüş mesafesi 10 km veya daha fazla
1400 ft yükseklikte parçalı bulutlu

TAF: GOOY 221730Z 2218/2324 30008KT 9999 SCT014

4.000'den fazla havaalanı için hava durumu gözlemleri ve tahminleri (METAR ve TAF raporları).

Kullanılabilir istasyonlar harita üzerinde sarı ve kırmızı noktalarla gösterilir.

İstasyonun adını görmek için fareyi noktanın üzerinde gezdirin.

Sonrasında hava gözlem ve tahminlerini görmek için tıklayın.

Haritayı değiştirmek için: yaklaştırmak için siyah artı işaretli yeşil düğmeye ve uzaklaştırmak için de eksi işaretli düğmeye hızla tıklayın; bitişik haritalar için yeşil okları kullanın.


METAR-TAF: